sensor_id;sensor_type;location;lat;lon;timestamp;P1;durP1;ratioP1;P2;durP2;ratioP2
17943;SDS011;9097;47.028;15.444;2024-03-25T00:00:27;3.17;;;2.27;;
17943;SDS011;9097;47.028;15.444;2024-03-25T00:03:31;5.30;;;2.30;;
17943;SDS011;9097;47.028;15.444;2024-03-25T00:06:34;6.37;;;1.97;;
17943;SDS011;9097;47.028;15.444;2024-03-25T00:09:36;4.57;;;2.47;;
17943;SDS011;9097;47.028;15.444;2024-03-25T00:12:38;2.57;;;1.73;;
17943;SDS011;9097;47.028;15.444;2024-03-25T00:15:40;5.40;;;2.20;;
17943;SDS011;9097;47.028;15.444;2024-03-25T00:18:45;5.33;;;2.60;;
17943;SDS011;9097;47.028;15.444;2024-03-25T00:21:46;7.10;;;2.67;;
17943;SDS011;9097;47.028;15.444;2024-03-25T00:24:49;6.07;;;2.47;;
17943;SDS011;9097;47.028;15.444;2024-03-25T00:27:51;5.37;;;2.77;;
17943;SDS011;9097;47.028;15.444;2024-03-25T00:30:53;5.93;;;3.87;;
17943;SDS011;9097;47.028;15.444;2024-03-25T00:33:56;7.70;;;2.60;;
17943;SDS011;9097;47.028;15.444;2024-03-25T00:36:59;8.13;;;2.97;;
17943;SDS011;9097;47.028;15.444;2024-03-25T00:40:00;5.43;;;2.33;;
17943;SDS011;9097;47.028;15.444;2024-03-25T00:43:05;4.53;;;2.53;;
17943;SDS011;9097;47.028;15.444;2024-03-25T00:46:07;5.70;;;2.70;;
17943;SDS011;9097;47.028;15.444;2024-03-25T00:49:11;5.33;;;2.70;;
17943;SDS011;9097;47.028;15.444;2024-03-25T00:52:14;5.07;;;2.97;;
17943;SDS011;9097;47.028;15.444;2024-03-25T00:55:16;3.37;;;2.63;;
17943;SDS011;9097;47.028;15.444;2024-03-25T00:58:18;4.63;;;2.27;;
17943;SDS011;9097;47.028;15.444;2024-03-25T01:01:21;7.83;;;2.10;;
17943;SDS011;9097;47.028;15.444;2024-03-25T01:04:24;5.97;;;2.47;;
17943;SDS011;9097;47.028;15.444;2024-03-25T01:07:26;5.17;;;2.63;;
17943;SDS011;9097;47.028;15.444;2024-03-25T01:10:29;6.40;;;3.53;;
17943;SDS011;9097;47.028;15.444;2024-03-25T01:13:31;4.70;;;2.40;;
17943;SDS011;9097;47.028;15.444;2024-03-25T01:16:34;6.53;;;2.77;;
17943;SDS011;9097;47.028;15.444;2024-03-25T01:19:37;6.13;;;2.30;;
17943;SDS011;9097;47.028;15.444;2024-03-25T01:22:39;5.03;;;2.97;;
17943;SDS011;9097;47.028;15.444;2024-03-25T01:25:41;5.57;;;2.87;;
17943;SDS011;9097;47.028;15.444;2024-03-25T01:28:43;4.33;;;2.33;;
17943;SDS011;9097;47.028;15.444;2024-03-25T01:31:46;5.43;;;2.33;;
17943;SDS011;9097;47.028;15.444;2024-03-25T01:34:48;4.17;;;2.10;;
17943;SDS011;9097;47.028;15.444;2024-03-25T01:37:50;2.87;;;2.57;;
17943;SDS011;9097;47.028;15.444;2024-03-25T01:40:52;5.27;;;2.43;;
17943;SDS011;9097;47.028;15.444;2024-03-25T01:43:54;4.10;;;2.17;;
17943;SDS011;9097;47.028;15.444;2024-03-25T01:46:55;3.87;;;1.77;;
17943;SDS011;9097;47.028;15.444;2024-03-25T01:49:59;3.80;;;1.97;;
17943;SDS011;9097;47.028;15.444;2024-03-25T01:53:01;3.43;;;1.90;;
17943;SDS011;9097;47.028;15.444;2024-03-25T01:56:04;3.60;;;1.87;;
17943;SDS011;9097;47.028;15.444;2024-03-25T01:59:08;3.63;;;2.70;;
17943;SDS011;9097;47.028;15.444;2024-03-25T02:02:09;2.47;;;1.77;;
17943;SDS011;9097;47.028;15.444;2024-03-25T02:05:14;5.37;;;1.73;;
17943;SDS011;9097;47.028;15.444;2024-03-25T02:08:16;1.70;;;1.60;;
17943;SDS011;9097;47.028;15.444;2024-03-25T02:11:22;3.37;;;2.23;;
17943;SDS011;9097;47.028;15.444;2024-03-25T02:14:26;4.17;;;2.60;;
17943;SDS011;9097;47.028;15.444;2024-03-25T02:17:27;3.90;;;1.77;;
17943;SDS011;9097;47.028;15.444;2024-03-25T02:20:31;3.77;;;1.30;;
17943;SDS011;9097;47.028;15.444;2024-03-25T02:23:34;3.30;;;2.23;;
17943;SDS011;9097;47.028;15.444;2024-03-25T02:26:37;2.50;;;1.63;;
17943;SDS011;9097;47.028;15.444;2024-03-25T02:29:39;3.23;;;1.70;;
17943;SDS011;9097;47.028;15.444;2024-03-25T02:32:41;1.90;;;1.60;;
17943;SDS011;9097;47.028;15.444;2024-03-25T02:35:43;2.93;;;1.73;;
17943;SDS011;9097;47.028;15.444;2024-03-25T02:38:45;5.20;;;1.77;;
17943;SDS011;9097;47.028;15.444;2024-03-25T02:41:49;2.50;;;1.67;;
17943;SDS011;9097;47.028;15.444;2024-03-25T02:44:51;2.10;;;1.17;;
17943;SDS011;9097;47.028;15.444;2024-03-25T02:47:53;3.63;;;1.80;;
17943;SDS011;9097;47.028;15.444;2024-03-25T02:50:56;6.73;;;1.80;;
17943;SDS011;9097;47.028;15.444;2024-03-25T02:53:59;3.67;;;1.90;;
17943;SDS011;9097;47.028;15.444;2024-03-25T02:57:03;6.37;;;2.20;;
17943;SDS011;9097;47.028;15.444;2024-03-25T03:00:05;5.80;;;2.23;;
17943;SDS011;9097;47.028;15.444;2024-03-25T03:03:09;4.87;;;1.97;;
17943;SDS011;9097;47.028;15.444;2024-03-25T03:06:10;3.33;;;2.33;;
17943;SDS011;9097;47.028;15.444;2024-03-25T03:09:13;3.83;;;1.77;;
17943;SDS011;9097;47.028;15.444;2024-03-25T03:12:17;8.07;;;2.87;;
17943;SDS011;9097;47.028;15.444;2024-03-25T03:15:20;3.57;;;1.60;;
17943;SDS011;9097;47.028;15.444;2024-03-25T03:18:22;3.60;;;2.77;;
17943;SDS011;9097;47.028;15.444;2024-03-25T03:21:24;3.60;;;1.93;;
17943;SDS011;9097;47.028;15.444;2024-03-25T03:24:26;2.63;;;1.87;;
17943;SDS011;9097;47.028;15.444;2024-03-25T03:27:30;7.03;;;2.57;;
17943;SDS011;9097;47.028;15.444;2024-03-25T03:30:32;3.47;;;2.43;;
17943;SDS011;9097;47.028;15.444;2024-03-25T03:33:35;3.07;;;2.00;;
17943;SDS011;9097;47.028;15.444;2024-03-25T03:36:37;6.33;;;2.47;;
17943;SDS011;9097;47.028;15.444;2024-03-25T03:39:40;3.93;;;2.23;;
17943;SDS011;9097;47.028;15.444;2024-03-25T03:42:44;4.63;;;2.50;;
17943;SDS011;9097;47.028;15.444;2024-03-25T03:45:46;4.97;;;2.53;;
17943;SDS011;9097;47.028;15.444;2024-03-25T03:48:48;9.67;;;3.60;;
17943;SDS011;9097;47.028;15.444;2024-03-25T03:51:50;8.23;;;3.50;;
17943;SDS011;9097;47.028;15.444;2024-03-25T03:54:52;10.40;;;4.50;;
17943;SDS011;9097;47.028;15.444;2024-03-25T03:57:55;9.13;;;3.67;;
17943;SDS011;9097;47.028;15.444;2024-03-25T04:00:57;7.67;;;3.60;;
17943;SDS011;9097;47.028;15.444;2024-03-25T04:03:59;12.90;;;3.60;;
17943;SDS011;9097;47.028;15.444;2024-03-25T04:07:01;6.47;;;2.97;;
17943;SDS011;9097;47.028;15.444;2024-03-25T04:10:05;4.30;;;2.20;;
17943;SDS011;9097;47.028;15.444;2024-03-25T04:13:09;3.80;;;1.83;;
17943;SDS011;9097;47.028;15.444;2024-03-25T04:16:11;4.43;;;2.13;;
17943;SDS011;9097;47.028;15.444;2024-03-25T04:19:14;6.50;;;3.00;;
17943;SDS011;9097;47.028;15.444;2024-03-25T04:22:17;4.33;;;2.40;;
17943;SDS011;9097;47.028;15.444;2024-03-25T04:25:19;6.73;;;2.33;;
17943;SDS011;9097;47.028;15.444;2024-03-25T04:28:23;2.60;;;2.40;;
17943;SDS011;9097;47.028;15.444;2024-03-25T04:31:25;2.70;;;1.47;;
17943;SDS011;9097;47.028;15.444;2024-03-25T04:34:27;5.97;;;2.33;;
17943;SDS011;9097;47.028;15.444;2024-03-25T04:37:30;5.70;;;3.27;;
17943;SDS011;9097;47.028;15.444;2024-03-25T04:40:31;4.53;;;2.23;;
17943;SDS011;9097;47.028;15.444;2024-03-25T04:43:34;4.80;;;2.17;;
17943;SDS011;9097;47.028;15.444;2024-03-25T04:46:35;4.47;;;2.40;;
17943;SDS011;9097;47.028;15.444;2024-03-25T04:49:37;7.17;;;2.17;;
17943;SDS011;9097;47.028;15.444;2024-03-25T04:52:38;7.30;;;2.10;;
17943;SDS011;9097;47.028;15.444;2024-03-25T04:55:39;5.13;;;2.37;;
17943;SDS011;9097;47.028;15.444;2024-03-25T04:58:43;4.93;;;2.80;;
17943;SDS011;9097;47.028;15.444;2024-03-25T05:01:44;6.10;;;2.87;;
17943;SDS011;9097;47.028;15.444;2024-03-25T05:04:45;2.83;;;1.53;;
17943;SDS011;9097;47.028;15.444;2024-03-25T05:07:47;4.57;;;2.37;;
17943;SDS011;9097;47.028;15.444;2024-03-25T05:10:48;8.43;;;3.00;;
17943;SDS011;9097;47.028;15.444;2024-03-25T05:13:51;3.97;;;1.93;;
17943;SDS011;9097;47.028;15.444;2024-03-25T05:16:52;4.07;;;1.97;;
17943;SDS011;9097;47.028;15.444;2024-03-25T05:19:54;8.77;;;2.07;;
17943;SDS011;9097;47.028;15.444;2024-03-25T05:22:55;5.17;;;2.70;;
17943;SDS011;9097;47.028;15.444;2024-03-25T05:25:56;4.27;;;3.07;;
17943;SDS011;9097;47.028;15.444;2024-03-25T05:28:59;7.97;;;2.83;;
17943;SDS011;9097;47.028;15.444;2024-03-25T05:32:00;4.07;;;3.00;;
17943;SDS011;9097;47.028;15.444;2024-03-25T05:35:02;3.00;;;2.50;;
17943;SDS011;9097;47.028;15.444;2024-03-25T05:38:04;3.87;;;2.63;;
17943;SDS011;9097;47.028;15.444;2024-03-25T05:41:05;3.77;;;2.50;;
17943;SDS011;9097;47.028;15.444;2024-03-25T05:44:07;2.53;;;2.23;;
17943;SDS011;9097;47.028;15.444;2024-03-25T05:47:09;4.00;;;2.67;;
17943;SDS011;9097;47.028;15.444;2024-03-25T05:50:10;10.10;;;2.70;;
17943;SDS011;9097;47.028;15.444;2024-03-25T05:53:12;5.80;;;3.37;;
17943;SDS011;9097;47.028;15.444;2024-03-25T05:56:13;7.20;;;3.33;;
17943;SDS011;9097;47.028;15.444;2024-03-25T05:59:16;10.17;;;3.87;;
17943;SDS011;9097;47.028;15.444;2024-03-25T06:02:17;6.70;;;2.30;;
17943;SDS011;9097;47.028;15.444;2024-03-25T06:05:18;11.13;;;3.37;;
17943;SDS011;9097;47.028;15.444;2024-03-25T06:08:19;8.60;;;3.20;;
17943;SDS011;9097;47.028;15.444;2024-03-25T06:11:21;4.63;;;3.63;;
17943;SDS011;9097;47.028;15.444;2024-03-25T06:14:23;3.63;;;2.40;;
17943;SDS011;9097;47.028;15.444;2024-03-25T06:17:25;4.57;;;2.70;;
17943;SDS011;9097;47.028;15.444;2024-03-25T06:20:26;10.37;;;3.00;;
17943;SDS011;9097;47.028;15.444;2024-03-25T06:23:28;6.33;;;2.63;;
17943;SDS011;9097;47.028;15.444;2024-03-25T06:26:29;7.33;;;2.20;;
17943;SDS011;9097;47.028;15.444;2024-03-25T06:29:32;3.97;;;2.33;;
17943;SDS011;9097;47.028;15.444;2024-03-25T06:32:34;8.83;;;3.00;;
17943;SDS011;9097;47.028;15.444;2024-03-25T06:35:53;6.03;;;2.63;;
17943;SDS011;9097;47.028;15.444;2024-03-25T06:38:55;7.87;;;2.93;;
17943;SDS011;9097;47.028;15.444;2024-03-25T06:41:56;2.90;;;1.90;;
17943;SDS011;9097;47.028;15.444;2024-03-25T06:44:59;4.87;;;2.10;;
17943;SDS011;9097;47.028;15.444;2024-03-25T06:48:00;3.47;;;2.20;;
17943;SDS011;9097;47.028;15.444;2024-03-25T06:51:02;4.63;;;2.33;;
17943;SDS011;9097;47.028;15.444;2024-03-25T06:54:03;3.53;;;1.50;;
17943;SDS011;9097;47.028;15.444;2024-03-25T06:57:05;2.27;;;1.70;;
17943;SDS011;9097;47.028;15.444;2024-03-25T07:00:08;2.00;;;1.43;;
17943;SDS011;9097;47.028;15.444;2024-03-25T07:03:09;3.90;;;1.93;;
17943;SDS011;9097;47.028;15.444;2024-03-25T07:06:11;2.10;;;1.80;;
17943;SDS011;9097;47.028;15.444;2024-03-25T07:09:12;3.33;;;1.67;;
17943;SDS011;9097;47.028;15.444;2024-03-25T07:12:14;3.23;;;1.50;;
17943;SDS011;9097;47.028;15.444;2024-03-25T07:15:16;5.43;;;1.63;;
17943;SDS011;9097;47.028;15.444;2024-03-25T07:18:18;4.27;;;1.90;;
17943;SDS011;9097;47.028;15.444;2024-03-25T07:21:20;2.97;;;1.63;;
17943;SDS011;9097;47.028;15.444;2024-03-25T07:24:21;3.67;;;1.73;;
17943;SDS011;9097;47.028;15.444;2024-03-25T07:27:22;4.33;;;2.43;;
17943;SDS011;9097;47.028;15.444;2024-03-25T07:30:25;3.37;;;1.40;;
17943;SDS011;9097;47.028;15.444;2024-03-25T07:33:28;2.30;;;1.23;;
17943;SDS011;9097;47.028;15.444;2024-03-25T07:36:29;3.17;;;1.63;;
17943;SDS011;9097;47.028;15.444;2024-03-25T07:39:30;5.33;;;1.40;;
17943;SDS011;9097;47.028;15.444;2024-03-25T07:42:32;2.37;;;1.23;;
17943;SDS011;9097;47.028;15.444;2024-03-25T07:45:35;7.70;;;2.13;;
17943;SDS011;9097;47.028;15.444;2024-03-25T07:48:36;1.93;;;1.43;;
17943;SDS011;9097;47.028;15.444;2024-03-25T07:51:38;3.37;;;1.47;;
17943;SDS011;9097;47.028;15.444;2024-03-25T07:54:39;1.10;;;0.77;;
17943;SDS011;9097;47.028;15.444;2024-03-25T07:57:41;2.47;;;1.17;;
17943;SDS011;9097;47.028;15.444;2024-03-25T08:00:44;0.90;;;0.73;;
17943;SDS011;9097;47.028;15.444;2024-03-25T08:03:45;3.43;;;1.47;;
17943;SDS011;9097;47.028;15.444;2024-03-25T08:06:47;2.20;;;1.30;;
17943;SDS011;9097;47.028;15.444;2024-03-25T08:09:48;1.53;;;0.83;;
17943;SDS011;9097;47.028;15.444;2024-03-25T08:12:49;1.23;;;0.63;;
17943;SDS011;9097;47.028;15.444;2024-03-25T08:15:52;0.90;;;0.90;;
17943;SDS011;9097;47.028;15.444;2024-03-25T08:18:54;0.77;;;0.63;;
17943;SDS011;9097;47.028;15.444;2024-03-25T08:21:55;2.93;;;1.23;;
17943;SDS011;9097;47.028;15.444;2024-03-25T08:24:57;3.20;;;1.23;;
17943;SDS011;9097;47.028;15.444;2024-03-25T08:27:58;1.23;;;0.70;;
17943;SDS011;9097;47.028;15.444;2024-03-25T08:31:02;1.03;;;0.70;;
17943;SDS011;9097;47.028;15.444;2024-03-25T08:34:03;3.00;;;1.10;;
17943;SDS011;9097;47.028;15.444;2024-03-25T08:37:05;1.23;;;0.90;;
17943;SDS011;9097;47.028;15.444;2024-03-25T08:40:07;0.60;;;0.50;;
17943;SDS011;9097;47.028;15.444;2024-03-25T08:43:09;1.07;;;0.73;;
17943;SDS011;9097;47.028;15.444;2024-03-25T08:46:12;1.00;;;0.50;;
17943;SDS011;9097;47.028;15.444;2024-03-25T08:49:13;2.33;;;1.33;;
17943;SDS011;9097;47.028;15.444;2024-03-25T08:52:14;1.80;;;1.00;;
17943;SDS011;9097;47.028;15.444;2024-03-25T08:55:16;2.07;;;1.00;;
17943;SDS011;9097;47.028;15.444;2024-03-25T08:58:17;0.60;;;0.47;;
17943;SDS011;9097;47.028;15.444;2024-03-25T09:01:20;0.83;;;0.70;;
17943;SDS011;9097;47.028;15.444;2024-03-25T09:04:21;2.70;;;1.00;;
17943;SDS011;9097;47.028;15.444;2024-03-25T09:07:22;2.60;;;1.27;;
17943;SDS011;9097;47.028;15.444;2024-03-25T09:10:24;1.37;;;0.70;;
17943;SDS011;9097;47.028;15.444;2024-03-25T09:13:43;1.23;;;0.60;;
17943;SDS011;9097;47.028;15.444;2024-03-25T09:16:46;0.97;;;0.77;;
17943;SDS011;9097;47.028;15.444;2024-03-25T09:19:47;2.00;;;0.60;;
17943;SDS011;9097;47.028;15.444;2024-03-25T09:22:49;0.50;;;0.43;;
17943;SDS011;9097;47.028;15.444;2024-03-25T09:25:51;0.47;;;0.28;;
17943;SDS011;9097;47.028;15.444;2024-03-25T09:28:52;0.30;;;0.30;;
17943;SDS011;9097;47.028;15.444;2024-03-25T09:31:55;0.85;;;0.38;;
17943;SDS011;9097;47.028;15.444;2024-03-25T09:34:56;0.65;;;0.65;;
17943;SDS011;9097;47.028;15.444;2024-03-25T09:37:58;0.10;;;0.10;;
17943;SDS011;9097;47.028;15.444;2024-03-25T09:40:59;3.08;;;0.55;;
17943;SDS011;9097;47.028;15.444;2024-03-25T09:44:00;0.95;;;0.40;;
17943;SDS011;9097;47.028;15.444;2024-03-25T09:47:03;1.30;;;0.50;;
17943;SDS011;9097;47.028;15.444;2024-03-25T09:50:06;1.77;;;0.60;;
17943;SDS011;9097;47.028;15.444;2024-03-25T09:53:08;0.57;;;0.38;;
17943;SDS011;9097;47.028;15.444;2024-03-25T09:56:09;0.32;;;0.32;;
17943;SDS011;9097;47.028;15.444;2024-03-25T09:59:11;0.35;;;0.30;;
17943;SDS011;9097;47.028;15.444;2024-03-25T10:02:14;0.40;;;0.30;;
17943;SDS011;9097;47.028;15.444;2024-03-25T10:05:16;0.20;;;0.17;;
17943;SDS011;9097;47.028;15.444;2024-03-25T10:08:19;0.50;;;0.30;;
17943;SDS011;9097;47.028;15.444;2024-03-25T10:11:21;0.40;;;0.30;;
17943;SDS011;9097;47.028;15.444;2024-03-25T10:14:23;0.30;;;0.30;;
17943;SDS011;9097;47.028;15.444;2024-03-25T10:17:25;0.30;;;0.30;;
17943;SDS011;9097;47.028;15.444;2024-03-25T10:20:27;2.08;;;0.20;;
17943;SDS011;9097;47.028;15.444;2024-03-25T10:23:28;0.47;;;0.20;;
17943;SDS011;9097;47.028;15.444;2024-03-25T10:26:30;0.40;;;0.40;;
17943;SDS011;9097;47.028;15.444;2024-03-25T10:29:32;0.20;;;0.20;;
17943;SDS011;9097;47.028;15.444;2024-03-25T10:32:35;0.30;;;0.20;;
17943;SDS011;9097;47.028;15.444;2024-03-25T10:35:37;0.22;;;0.20;;
17943;SDS011;9097;47.028;15.444;2024-03-25T10:38:38;0.40;;;0.22;;
17943;SDS011;9097;47.028;15.444;2024-03-25T10:41:40;0.43;;;0.28;;
17943;SDS011;9097;47.028;15.444;2024-03-25T10:44:42;0.10;;;0.10;;
17943;SDS011;9097;47.028;15.444;2024-03-25T10:47:45;0.10;;;0.10;;
17943;SDS011;9097;47.028;15.444;2024-03-25T10:50:47;0.93;;;0.40;;
17943;SDS011;9097;47.028;15.444;2024-03-25T10:53:49;0.30;;;0.20;;
17943;SDS011;9097;47.028;15.444;2024-03-25T10:56:52;0.17;;;0.10;;
17943;SDS011;9097;47.028;15.444;2024-03-25T10:59:54;0.17;;;0.10;;
17943;SDS011;9097;47.028;15.444;2024-03-25T11:02:58;0.40;;;0.30;;
17943;SDS011;9097;47.028;15.444;2024-03-25T11:06:00;0.20;;;0.17;;
17943;SDS011;9097;47.028;15.444;2024-03-25T11:09:01;0.40;;;0.30;;
17943;SDS011;9097;47.028;15.444;2024-03-25T11:12:03;0.32;;;0.28;;
17943;SDS011;9097;47.028;15.444;2024-03-25T11:15:05;0.30;;;0.20;;
17943;SDS011;9097;47.028;15.444;2024-03-25T11:18:12;0.65;;;0.30;;
17943;SDS011;9097;47.028;15.444;2024-03-25T11:21:13;0.22;;;0.20;;
17943;SDS011;9097;47.028;15.444;2024-03-25T11:24:14;1.67;;;0.45;;
17943;SDS011;9097;47.028;15.444;2024-03-25T11:27:21;0.30;;;0.30;;
17943;SDS011;9097;47.028;15.444;2024-03-25T11:30:23;0.10;;;0.10;;
17943;SDS011;9097;47.028;15.444;2024-03-25T11:33:26;0.32;;;0.17;;
17943;SDS011;9097;47.028;15.444;2024-03-25T11:36:27;0.15;;;0.15;;
17943;SDS011;9097;47.028;15.444;2024-03-25T11:39:28;0.20;;;0.20;;
17943;SDS011;9097;47.028;15.444;2024-03-25T11:42:30;0.10;;;0.10;;
17943;SDS011;9097;47.028;15.444;2024-03-25T11:45:31;0.10;;;0.10;;
17943;SDS011;9097;47.028;15.444;2024-03-25T11:48:34;0.30;;;0.20;;
17943;SDS011;9097;47.028;15.444;2024-03-25T11:51:36;0.30;;;0.20;;
17943;SDS011;9097;47.028;15.444;2024-03-25T11:54:37;0.90;;;0.43;;
17943;SDS011;9097;47.028;15.444;2024-03-25T11:57:39;0.65;;;0.25;;
17943;SDS011;9097;47.028;15.444;2024-03-25T12:00:44;0.50;;;0.28;;
17943;SDS011;9097;47.028;15.444;2024-03-25T12:03:47;1.02;;;0.30;;
17943;SDS011;9097;47.028;15.444;2024-03-25T12:06:49;0.95;;;0.20;;
17943;SDS011;9097;47.028;15.444;2024-03-25T12:09:50;0.85;;;0.30;;
17943;SDS011;9097;47.028;15.444;2024-03-25T12:13:19;0.13;;;0.13;;
17943;SDS011;9097;47.028;15.444;2024-03-25T12:16:21;1.75;;;0.20;;
17943;SDS011;9097;47.028;15.444;2024-03-25T12:19:25;0.75;;;0.30;;
17943;SDS011;9097;47.028;15.444;2024-03-25T12:22:27;0.43;;;0.30;;
17943;SDS011;9097;47.028;15.444;2024-03-25T12:25:28;0.30;;;0.30;;
17943;SDS011;9097;47.028;15.444;2024-03-25T12:28:30;0.65;;;0.32;;
17943;SDS011;9097;47.028;15.444;2024-03-25T12:31:32;0.30;;;0.30;;
17943;SDS011;9097;47.028;15.444;2024-03-25T12:34:35;0.28;;;0.28;;
17943;SDS011;9097;47.028;15.444;2024-03-25T12:37:37;0.40;;;0.30;;
17943;SDS011;9097;47.028;15.444;2024-03-25T12:40:39;0.80;;;0.45;;
17943;SDS011;9097;47.028;15.444;2024-03-25T12:43:41;0.25;;;0.22;;
17943;SDS011;9097;47.028;15.444;2024-03-25T12:46:43;0.67;;;0.30;;
17943;SDS011;9097;47.028;15.444;2024-03-25T12:49:46;0.50;;;0.30;;
17943;SDS011;9097;47.028;15.444;2024-03-25T12:52:47;0.87;;;0.60;;
17943;SDS011;9097;47.028;15.444;2024-03-25T12:55:49;0.20;;;0.20;;
17943;SDS011;9097;47.028;15.444;2024-03-25T12:58:50;0.57;;;0.33;;
17943;SDS011;9097;47.028;15.444;2024-03-25T13:01:52;0.87;;;0.30;;
17943;SDS011;9097;47.028;15.444;2024-03-25T13:04:55;0.30;;;0.20;;
17943;SDS011;9097;47.028;15.444;2024-03-25T13:07:56;10.07;;;0.40;;
17943;SDS011;9097;47.028;15.444;2024-03-25T13:10:57;0.50;;;0.30;;
17943;SDS011;9097;47.028;15.444;2024-03-25T13:13:59;0.47;;;0.30;;
17943;SDS011;9097;47.028;15.444;2024-03-25T13:17:01;0.10;;;0.10;;
17943;SDS011;9097;47.028;15.444;2024-03-25T13:20:05;0.17;;;0.17;;
17943;SDS011;9097;47.028;15.444;2024-03-25T13:23:06;0.33;;;0.30;;
17943;SDS011;9097;47.028;15.444;2024-03-25T13:26:08;0.37;;;0.20;;
17943;SDS011;9097;47.028;15.444;2024-03-25T13:29:09;0.10;;;0.10;;
17943;SDS011;9097;47.028;15.444;2024-03-25T13:32:11;0.17;;;0.17;;
17943;SDS011;9097;47.028;15.444;2024-03-25T13:35:14;0.10;;;0.10;;
17943;SDS011;9097;47.028;15.444;2024-03-25T13:38:15;0.20;;;0.10;;
17943;SDS011;9097;47.028;15.444;2024-03-25T13:41:17;0.13;;;0.13;;
17943;SDS011;9097;47.028;15.444;2024-03-25T13:44:18;1.50;;;0.47;;
17943;SDS011;9097;47.028;15.444;2024-03-25T13:47:20;0.57;;;0.30;;
17943;SDS011;9097;47.028;15.444;2024-03-25T13:50:23;0.30;;;0.20;;
17943;SDS011;9097;47.028;15.444;2024-03-25T13:53:25;0.40;;;0.30;;
17943;SDS011;9097;47.028;15.444;2024-03-25T13:56:26;0.50;;;0.23;;
17943;SDS011;9097;47.028;15.444;2024-03-25T13:59:28;0.40;;;0.20;;
17943;SDS011;9097;47.028;15.444;2024-03-25T14:02:29;0.57;;;0.57;;
17943;SDS011;9097;47.028;15.444;2024-03-25T14:05:32;0.47;;;0.30;;
17943;SDS011;9097;47.028;15.444;2024-03-25T14:08:33;0.50;;;0.30;;
17943;SDS011;9097;47.028;15.444;2024-03-25T14:11:35;0.53;;;0.23;;
17943;SDS011;9097;47.028;15.444;2024-03-25T14:14:36;0.40;;;0.30;;
17943;SDS011;9097;47.028;15.444;2024-03-25T14:17:38;0.50;;;0.10;;
17943;SDS011;9097;47.028;15.444;2024-03-25T14:20:41;0.53;;;0.23;;
17943;SDS011;9097;47.028;15.444;2024-03-25T14:23:42;0.20;;;0.20;;
17943;SDS011;9097;47.028;15.444;2024-03-25T14:26:44;0.27;;;0.23;;
17943;SDS011;9097;47.028;15.444;2024-03-25T14:29:45;1.20;;;0.30;;
17943;SDS011;9097;47.028;15.444;2024-03-25T14:32:47;0.37;;;0.20;;
17943;SDS011;9097;47.028;15.444;2024-03-25T14:35:50;0.70;;;0.30;;
17943;SDS011;9097;47.028;15.444;2024-03-25T14:38:51;0.10;;;0.10;;
17943;SDS011;9097;47.028;15.444;2024-03-25T14:41:53;0.47;;;0.47;;
17943;SDS011;9097;47.028;15.444;2024-03-25T14:44:54;0.20;;;0.20;;
17943;SDS011;9097;47.028;15.444;2024-03-25T14:47:56;0.20;;;0.20;;
17943;SDS011;9097;47.028;15.444;2024-03-25T14:50:58;0.10;;;0.10;;
17943;SDS011;9097;47.028;15.444;2024-03-25T14:54:00;0.00;;;0.00;;
17943;SDS011;9097;47.028;15.444;2024-03-25T14:57:01;0.10;;;0.10;;
17943;SDS011;9097;47.028;15.444;2024-03-25T15:00:03;0.10;;;0.10;;
17943;SDS011;9097;47.028;15.444;2024-03-25T15:03:05;0.70;;;0.40;;
17943;SDS011;9097;47.028;15.444;2024-03-25T15:06:08;0.90;;;0.53;;
17943;SDS011;9097;47.028;15.444;2024-03-25T15:09:09;0.87;;;0.20;;
17943;SDS011;9097;47.028;15.444;2024-03-25T15:12:13;0.30;;;0.20;;
17943;SDS011;9097;47.028;15.444;2024-03-25T15:15:14;0.13;;;0.10;;
17943;SDS011;9097;47.028;15.444;2024-03-25T15:18:16;0.30;;;0.30;;
17943;SDS011;9097;47.028;15.444;2024-03-25T15:21:18;0.20;;;0.17;;
17943;SDS011;9097;47.028;15.444;2024-03-25T15:24:20;0.45;;;0.32;;
17943;SDS011;9097;47.028;15.444;2024-03-25T15:27:21;0.13;;;0.10;;
17943;SDS011;9097;47.028;15.444;2024-03-25T15:30:23;0.25;;;0.10;;
17943;SDS011;9097;47.028;15.444;2024-03-25T15:33:25;0.10;;;0.10;;
17943;SDS011;9097;47.028;15.444;2024-03-25T15:36:28;1.60;;;0.50;;
17943;SDS011;9097;47.028;15.444;2024-03-25T15:39:29;0.20;;;0.20;;
17943;SDS011;9097;47.028;15.444;2024-03-25T15:42:31;0.30;;;0.20;;
17943;SDS011;9097;47.028;15.444;2024-03-25T15:45:34;0.40;;;0.10;;
17943;SDS011;9097;47.028;15.444;2024-03-25T15:48:35;0.13;;;0.13;;
17943;SDS011;9097;47.028;15.444;2024-03-25T15:51:38;0.10;;;0.10;;
17943;SDS011;9097;47.028;15.444;2024-03-25T15:54:40;1.40;;;0.33;;
17943;SDS011;9097;47.028;15.444;2024-03-25T15:57:41;0.23;;;0.10;;
17943;SDS011;9097;47.028;15.444;2024-03-25T16:00:43;0.23;;;0.20;;
17943;SDS011;9097;47.028;15.444;2024-03-25T16:03:44;0.10;;;0.10;;
17943;SDS011;9097;47.028;15.444;2024-03-25T16:06:47;0.50;;;0.40;;
17943;SDS011;9097;47.028;15.444;2024-03-25T16:09:48;0.93;;;0.20;;
17943;SDS011;9097;47.028;15.444;2024-03-25T16:12:50;0.10;;;0.10;;
17943;SDS011;9097;47.028;15.444;2024-03-25T16:16:00;0.30;;;0.30;;
17943;SDS011;9097;47.028;15.444;2024-03-25T16:19:02;0.47;;;0.20;;
17943;SDS011;9097;47.028;15.444;2024-03-25T16:22:05;0.60;;;0.13;;
17943;SDS011;9097;47.028;15.444;2024-03-25T16:25:07;1.17;;;0.40;;
17943;SDS011;9097;47.028;15.444;2024-03-25T16:28:09;0.20;;;0.20;;
17943;SDS011;9097;47.028;15.444;2024-03-25T16:31:10;0.10;;;0.10;;
17943;SDS011;9097;47.028;15.444;2024-03-25T16:34:12;0.20;;;0.20;;
17943;SDS011;9097;47.028;15.444;2024-03-25T16:37:14;0.10;;;0.10;;
17943;SDS011;9097;47.028;15.444;2024-03-25T16:40:16;0.40;;;0.30;;
17943;SDS011;9097;47.028;15.444;2024-03-25T16:43:18;0.83;;;0.10;;
17943;SDS011;9097;47.028;15.444;2024-03-25T16:46:19;0.30;;;0.30;;
17943;SDS011;9097;47.028;15.444;2024-03-25T16:49:21;1.43;;;0.60;;
17943;SDS011;9097;47.028;15.444;2024-03-25T16:52:23;0.20;;;0.20;;
17943;SDS011;9097;47.028;15.444;2024-03-25T16:55:25;1.43;;;0.77;;
17943;SDS011;9097;47.028;15.444;2024-03-25T16:58:26;0.47;;;0.30;;
17943;SDS011;9097;47.028;15.444;2024-03-25T17:01:28;0.80;;;0.67;;
17943;SDS011;9097;47.028;15.444;2024-03-25T17:04:29;0.60;;;0.50;;
17943;SDS011;9097;47.028;15.444;2024-03-25T17:07:32;2.97;;;0.50;;
17943;SDS011;9097;47.028;15.444;2024-03-25T17:10:33;0.40;;;0.33;;
17943;SDS011;9097;47.028;15.444;2024-03-25T17:13:35;0.30;;;0.30;;
17943;SDS011;9097;47.028;15.444;2024-03-25T17:16:36;1.00;;;0.50;;
17943;SDS011;9097;47.028;15.444;2024-03-25T17:19:38;1.67;;;0.57;;
17943;SDS011;9097;47.028;15.444;2024-03-25T17:22:41;1.87;;;0.57;;
17943;SDS011;9097;47.028;15.444;2024-03-25T17:25:42;2.03;;;0.70;;
17943;SDS011;9097;47.028;15.444;2024-03-25T17:28:44;1.43;;;0.60;;
17943;SDS011;9097;47.028;15.444;2024-03-25T17:31:46;3.23;;;1.20;;
17943;SDS011;9097;47.028;15.444;2024-03-25T17:34:49;1.40;;;0.83;;
17943;SDS011;9097;47.028;15.444;2024-03-25T17:37:52;3.10;;;1.07;;
17943;SDS011;9097;47.028;15.444;2024-03-25T17:40:53;1.87;;;1.00;;
17943;SDS011;9097;47.028;15.444;2024-03-25T17:43:54;2.23;;;0.43;;
17943;SDS011;9097;47.028;15.444;2024-03-25T17:46:56;1.00;;;0.77;;
17943;SDS011;9097;47.028;15.444;2024-03-25T17:49:57;0.53;;;0.30;;
17943;SDS011;9097;47.028;15.444;2024-03-25T17:53:00;0.93;;;0.40;;
17943;SDS011;9097;47.028;15.444;2024-03-25T17:56:02;2.67;;;1.17;;
17943;SDS011;9097;47.028;15.444;2024-03-25T17:59:03;2.47;;;0.77;;
17943;SDS011;9097;47.028;15.444;2024-03-25T18:02:05;1.17;;;0.70;;
17943;SDS011;9097;47.028;15.444;2024-03-25T18:05:06;1.53;;;1.00;;
17943;SDS011;9097;47.028;15.444;2024-03-25T18:08:09;1.17;;;0.50;;
17943;SDS011;9097;47.028;15.444;2024-03-25T18:11:11;2.47;;;0.73;;
17943;SDS011;9097;47.028;15.444;2024-03-25T18:14:12;1.53;;;0.70;;
17943;SDS011;9097;47.028;15.444;2024-03-25T18:17:14;1.27;;;0.53;;